createdAt,value
2018-02-08T00:00:41.290Z,25.20
2018-02-08T00:01:41.227Z,26.00
2018-02-08T00:02:41.166Z,25.00
2018-02-08T00:03:41.104Z,26.70
2018-02-08T00:04:41.044Z,26.00
2018-02-08T00:05:40.981Z,24.80
2018-02-08T00:06:40.920Z,24.50
2018-02-08T00:07:40.858Z,24.90
2018-02-08T00:08:40.798Z,24.80
2018-02-08T00:09:40.735Z,25.00
2018-02-08T00:10:40.673Z,25.20
2018-02-08T00:11:40.613Z,24.80
2018-02-08T00:12:40.552Z,24.90
2018-02-08T00:13:40.489Z,26.00
2018-02-08T00:14:40.428Z,26.70
2018-02-08T00:15:40.369Z,24.70
2018-02-08T00:16:40.305Z,24.60
2018-02-08T00:17:40.244Z,24.80
2018-02-08T00:18:40.182Z,27.40
2018-02-08T00:19:40.126Z,25.40
2018-02-08T00:20:40.060Z,25.40
2018-02-08T00:21:39.999Z,26.30
2018-02-08T00:22:39.937Z,25.90
2018-02-08T00:23:39.874Z,25.60
2018-02-08T00:24:39.815Z,25.50
2018-02-08T00:25:39.751Z,25.10
2018-02-08T00:26:39.691Z,25.60
2018-02-08T00:27:39.629Z,26.00
2018-02-08T00:28:39.570Z,25.80
2018-02-08T00:29:39.506Z,24.70
2018-02-08T00:30:39.444Z,24.20
2018-02-08T00:31:39.383Z,26.20
2018-02-08T00:32:39.323Z,25.80
2018-02-08T00:33:39.261Z,27.40
2018-02-08T00:34:39.202Z,25.10
2018-02-08T00:35:39.138Z,25.70
2018-02-08T00:36:39.076Z,26.30
2018-02-08T00:37:39.014Z,27.60
2018-02-08T00:38:38.954Z,24.00
2018-02-08T00:39:38.893Z,25.20
2018-02-08T00:40:38.831Z,27.20
2018-02-08T00:41:38.770Z,26.70
2018-02-08T00:42:38.708Z,25.80
2018-02-08T00:43:38.647Z,25.80
2018-02-08T00:44:38.587Z,25.10
2018-02-08T00:45:38.522Z,26.60
2018-02-08T00:46:38.463Z,25.50
2018-02-08T00:47:38.402Z,24.40
2018-02-08T00:48:38.340Z,26.50
2018-02-08T00:49:38.277Z,25.90
2018-02-08T00:50:38.215Z,24.50
2018-02-08T00:51:38.154Z,24.60
2018-02-08T00:52:38.093Z,24.50
2018-02-08T00:53:38.032Z,26.00
2018-02-08T00:54:37.970Z,24.00
2018-02-08T00:55:37.909Z,24.60
2018-02-08T00:56:37.847Z,24.50
2018-02-08T00:57:37.786Z,26.00
2018-02-08T00:58:37.725Z,24.40
2018-02-08T00:59:37.662Z,24.40
2018-02-08T01:00:37.602Z,24.90
2018-02-08T01:01:37.540Z,26.30
2018-02-08T01:02:37.478Z,25.00
2018-02-08T01:03:37.417Z,24.10
2018-02-08T01:04:37.357Z,26.20
2018-02-08T01:05:37.292Z,24.60
2018-02-08T01:06:37.232Z,24.90
2018-02-08T01:07:37.170Z,24.00
2018-02-08T01:08:37.109Z,24.20
2018-02-08T01:09:37.047Z,24.10
2018-02-08T01:10:36.984Z,26.10
2018-02-08T01:11:36.925Z,24.70
2018-02-08T01:12:36.863Z,25.10
2018-02-08T01:13:36.802Z,26.00
2018-02-08T01:14:36.740Z,24.10
2018-02-08T01:15:36.679Z,25.70
2018-02-08T01:16:36.617Z,26.30
2018-02-08T01:17:36.554Z,25.60
2018-02-08T01:18:36.493Z,26.90
2018-02-08T01:19:36.433Z,25.50
2018-02-08T01:20:36.371Z,24.40
2018-02-08T01:21:36.309Z,25.30
2018-02-08T01:22:36.247Z,25.60
2018-02-08T01:23:36.186Z,24.90
2018-02-08T01:24:36.128Z,25.70
2018-02-08T01:25:36.062Z,25.40
2018-02-08T01:26:36.002Z,25.00
2018-02-08T01:27:35.940Z,23.80
2018-02-08T01:28:35.880Z,24.10
2018-02-08T01:29:35.815Z,23.90
2018-02-08T01:30:35.757Z,25.20
2018-02-08T01:31:35.693Z,24.70
2018-02-08T01:32:35.634Z,25.60
2018-02-08T01:33:35.570Z,25.30
2018-02-08T01:34:35.511Z,24.20
2018-02-08T01:35:35.450Z,25.20
2018-02-08T01:36:35.387Z,25.40
2018-02-08T01:37:35.325Z,24.40
2018-02-08T01:38:35.262Z,24.70
2018-02-08T01:39:35.201Z,25.70
2018-02-08T01:40:35.141Z,26.50
2018-02-08T01:41:35.078Z,25.70
2018-02-08T01:42:35.018Z,24.50
2018-02-08T01:43:34.955Z,26.00
2018-02-08T01:44:34.896Z,26.10
2018-02-08T01:45:34.832Z,24.50
2018-02-08T01:46:34.772Z,24.60
2018-02-08T01:47:34.710Z,24.00
2018-02-08T01:48:34.649Z,23.90
2018-02-08T01:49:34.586Z,23.80
2018-02-08T01:50:34.525Z,25.50
2018-02-08T01:51:34.464Z,24.50
2018-02-08T01:52:34.402Z,24.90
2018-02-08T01:53:34.340Z,25.50
2018-02-08T01:54:34.279Z,25.80
2018-02-08T01:55:34.217Z,25.50
2018-02-08T01:56:34.156Z,23.60
2018-02-08T01:57:34.093Z,24.90
2018-02-08T01:58:34.032Z,24.80
2018-02-08T01:59:33.971Z,24.80
2018-02-08T02:00:33.909Z,24.30
2018-02-08T02:01:33.847Z,24.40
2018-02-08T02:02:33.786Z,25.20
2018-02-08T02:03:33.725Z,23.70
2018-02-08T02:04:33.664Z,23.90
2018-02-08T02:05:33.602Z,25.20
2018-02-08T02:06:33.541Z,24.20
2018-02-08T02:07:33.478Z,23.30
2018-02-08T02:08:33.416Z,23.20
2018-02-08T02:09:33.355Z,24.00
2018-02-08T02:10:33.293Z,25.20
2018-02-08T02:11:33.232Z,24.10
2018-02-08T02:12:33.175Z,25.10
2018-02-08T02:13:33.111Z,24.70
2018-02-08T02:14:33.047Z,24.80
2018-02-08T02:15:32.989Z,26.80
2018-02-08T02:16:32.925Z,24.70
2018-02-08T02:17:32.863Z,25.20
2018-02-08T02:18:32.801Z,25.10
2018-02-08T02:19:32.775Z,24.40
2018-02-08T02:20:32.733Z,24.10
2018-02-08T02:21:32.616Z,24.30
2018-02-08T02:22:32.554Z,23.80
2018-02-08T02:23:32.492Z,25.20
2018-02-08T02:24:32.432Z,24.60
2018-02-08T02:25:32.369Z,23.80
2018-02-08T02:26:32.308Z,24.00
2018-02-08T02:27:32.246Z,24.00
2018-02-08T02:28:32.185Z,24.80
2018-02-08T02:29:32.123Z,24.50
2018-02-08T02:30:32.063Z,24.30
2018-02-08T02:31:32.003Z,26.50
2018-02-08T02:32:31.940Z,24.10
2018-02-08T02:33:31.878Z,22.90
2018-02-08T02:34:31.814Z,24.50
2018-02-08T02:35:31.754Z,24.70
2018-02-08T02:36:31.693Z,23.90
2018-02-08T02:37:31.631Z,24.20
2018-02-08T02:38:31.570Z,24.00
2018-02-08T02:39:31.509Z,24.40
2018-02-08T02:40:31.448Z,24.10
2018-02-08T02:41:31.392Z,24.10
2018-02-08T02:42:31.325Z,23.70
2018-02-08T02:43:31.261Z,23.90
2018-02-08T02:44:31.201Z,24.00
2018-02-08T02:45:31.138Z,23.30
2018-02-08T02:46:31.077Z,24.70
2018-02-08T02:47:31.015Z,24.30
2018-02-08T02:48:30.954Z,25.30
2018-02-08T02:49:30.892Z,24.60
2018-02-08T02:50:30.833Z,22.80
2018-02-08T02:51:30.770Z,23.60
2018-02-08T02:52:30.708Z,24.50
2018-02-08T02:53:30.645Z,24.20
2018-02-08T02:54:30.584Z,23.20
2018-02-08T02:55:30.523Z,23.90
2018-02-08T02:56:30.462Z,23.30
2018-02-08T02:57:30.397Z,24.40
2018-02-08T02:58:30.338Z,23.00
2018-02-08T02:59:30.277Z,25.20
2018-02-08T03:00:30.215Z,23.80
2018-02-08T03:01:30.155Z,24.50
2018-02-08T03:02:30.091Z,24.10
2018-02-08T03:03:30.030Z,23.80
2018-02-08T03:04:29.967Z,23.80
2018-02-08T03:05:29.906Z,25.20
2018-02-08T03:06:29.844Z,24.10
2018-02-08T03:07:29.783Z,24.20
2018-02-08T03:08:29.722Z,23.70
2018-02-08T03:09:29.660Z,23.60
2018-02-08T03:10:29.598Z,23.40
2018-02-08T03:11:29.537Z,24.60
2018-02-08T03:12:29.475Z,22.80
2018-02-08T03:13:29.412Z,22.50
2018-02-08T03:14:29.352Z,23.10
2018-02-08T03:15:29.290Z,24.20
2018-02-08T03:16:29.228Z,24.90
2018-02-08T03:17:29.167Z,24.10
2018-02-08T03:18:29.106Z,24.20
2018-02-08T03:19:29.044Z,24.40
2018-02-08T03:20:28.985Z,22.70
2018-02-08T03:21:28.919Z,24.80
2018-02-08T03:22:28.857Z,23.10
2018-02-08T03:23:28.797Z,24.10
2018-02-08T03:24:28.736Z,23.20
2018-02-08T03:25:28.672Z,23.80
2018-02-08T03:26:28.610Z,24.80
2018-02-08T03:27:28.549Z,24.30
2018-02-08T03:28:28.491Z,24.70
2018-02-08T03:29:28.427Z,24.00
2018-02-08T03:30:28.366Z,26.80
2018-02-08T03:31:28.306Z,24.80
2018-02-08T03:32:28.242Z,23.10
2018-02-08T03:33:28.180Z,22.50
2018-02-08T03:34:28.119Z,24.00
2018-02-08T03:35:28.058Z,23.60
2018-02-08T03:36:27.995Z,22.40
2018-02-08T03:37:27.932Z,23.80
2018-02-08T03:38:27.872Z,22.10
2018-02-08T03:39:27.810Z,24.40
2018-02-08T03:40:27.749Z,24.50
2018-02-08T03:41:27.686Z,23.30
2018-02-08T03:42:27.626Z,23.30
2018-02-08T03:43:27.570Z,23.40
2018-02-08T03:44:27.503Z,23.70
2018-02-08T03:45:27.440Z,24.50
2018-02-08T03:46:27.378Z,25.10
2018-02-08T03:47:27.316Z,23.70
2018-02-08T03:48:27.257Z,22.90
2018-02-08T03:49:27.193Z,24.50
2018-02-08T03:50:27.131Z,22.90
2018-02-08T03:51:27.071Z,22.80
2018-02-08T03:52:27.009Z,23.60
2018-02-08T03:53:26.947Z,23.80
2018-02-08T03:54:26.885Z,23.10
2018-02-08T03:55:26.824Z,23.20
2018-02-08T03:56:26.762Z,24.60
2018-02-08T03:57:26.702Z,23.90
2018-02-08T03:58:26.639Z,23.00
2018-02-08T03:59:26.576Z,23.90
2018-02-08T04:00:26.516Z,25.30
2018-02-08T04:01:26.455Z,22.80
2018-02-08T04:02:26.392Z,22.40
2018-02-08T04:03:26.329Z,23.10
2018-02-08T04:04:26.267Z,23.60
2018-02-08T04:05:26.205Z,23.40
2018-02-08T04:06:26.145Z,24.70
2018-02-08T04:07:26.085Z,22.30
2018-02-08T04:08:26.042Z,23.10
2018-02-08T04:09:25.961Z,23.10
2018-02-08T04:10:25.898Z,23.10
2018-02-08T04:11:25.836Z,23.30
2018-02-08T04:12:25.777Z,22.70
2018-02-08T04:13:25.713Z,22.40
2018-02-08T04:14:25.650Z,22.90
2018-02-08T04:15:25.589Z,23.80
2018-02-08T04:16:25.529Z,23.30
2018-02-08T04:17:25.465Z,23.40
2018-02-08T04:18:25.404Z,24.30
2018-02-08T04:19:25.343Z,24.10
2018-02-08T04:20:25.281Z,24.00
2018-02-08T04:21:25.218Z,22.80
2018-02-08T04:22:25.157Z,22.80
2018-02-08T04:23:25.153Z,23.60
2018-02-08T04:24:25.035Z,23.50
2018-02-08T04:25:24.971Z,24.50
2018-02-08T04:26:24.914Z,23.80
2018-02-08T04:27:24.849Z,21.40
2018-02-08T04:28:24.788Z,22.30
2018-02-08T04:29:24.724Z,22.80
2018-02-08T04:30:24.666Z,24.90
2018-02-08T04:31:24.601Z,23.30
2018-02-08T04:32:24.540Z,23.40
2018-02-08T04:33:24.479Z,23.40
2018-02-08T04:34:24.416Z,23.10
2018-02-08T04:35:24.355Z,22.40
2018-02-08T04:36:24.294Z,22.60
2018-02-08T04:37:24.231Z,22.60
2018-02-08T04:38:24.170Z,22.30
2018-02-08T04:39:24.108Z,23.00
2018-02-08T04:40:24.047Z,22.90
2018-02-08T04:41:23.984Z,22.90
2018-02-08T04:42:23.928Z,23.10
2018-02-08T04:43:23.863Z,23.90
2018-02-08T04:44:23.800Z,23.40
2018-02-08T04:45:23.738Z,21.00
2018-02-08T04:46:23.676Z,22.90
2018-02-08T04:47:23.615Z,22.50
2018-02-08T04:48:23.553Z,22.60
2018-02-08T04:49:23.492Z,22.30
2018-02-08T04:50:23.428Z,22.60
2018-02-08T04:51:23.368Z,23.00
2018-02-08T04:52:23.306Z,22.20
2018-02-08T04:53:23.244Z,24.10
2018-02-08T04:54:23.183Z,24.60
2018-02-08T04:55:23.120Z,24.10
2018-02-08T04:56:23.060Z,23.30
2018-02-08T04:57:22.997Z,23.60
2018-02-08T04:58:22.936Z,23.40
2018-02-08T04:59:22.874Z,23.00
2018-02-08T05:00:22.813Z,24.20
2018-02-08T05:01:22.750Z,22.60
2018-02-08T05:02:22.688Z,22.50
2018-02-08T05:03:22.626Z,22.40
2018-02-08T05:04:22.565Z,24.60
2018-02-08T05:05:22.504Z,23.20
2018-02-08T05:06:22.442Z,21.60
2018-02-08T05:07:22.381Z,22.20
2018-02-08T05:08:22.321Z,23.30
2018-02-08T05:09:22.256Z,22.70
2018-02-08T05:10:22.194Z,25.20
2018-02-08T05:11:22.133Z,22.30
2018-02-08T05:12:22.072Z,22.30
2018-02-08T05:13:22.010Z,23.30
2018-02-08T05:14:21.950Z,22.50
2018-02-08T05:15:21.887Z,23.10
2018-02-08T05:16:21.826Z,23.50
2018-02-08T05:17:21.762Z,22.30
2018-02-08T05:18:21.701Z,24.10
2018-02-08T05:19:21.640Z,21.50
2018-02-08T05:20:21.575Z,23.10
2018-02-08T05:21:21.515Z,23.30
2018-02-08T05:22:21.455Z,22.00
2018-02-08T05:23:21.393Z,23.90
2018-02-08T05:24:21.330Z,22.70
2018-02-08T05:25:21.269Z,24.40
2018-02-08T05:26:21.207Z,22.40
2018-02-08T05:27:21.145Z,22.50
2018-02-08T05:28:21.085Z,24.50
2018-02-08T05:29:21.023Z,22.40
2018-02-08T05:30:20.960Z,22.40
2018-02-08T05:31:20.898Z,21.90
2018-02-08T05:32:20.837Z,21.80
2018-02-08T05:33:20.775Z,22.90
2018-02-08T05:34:20.714Z,21.90
2018-02-08T05:35:20.653Z,23.80
2018-02-08T05:36:20.591Z,21.10
2018-02-08T05:37:20.527Z,21.80
2018-02-08T05:38:20.467Z,21.50
2018-02-08T05:39:20.405Z,22.90
2018-02-08T05:40:20.344Z,22.30
2018-02-08T05:41:20.280Z,21.20
2018-02-08T05:42:20.221Z,22.00
2018-02-08T05:43:20.158Z,22.50
2018-02-08T05:44:20.095Z,21.20
2018-02-08T05:45:20.035Z,22.80
2018-02-08T05:46:19.978Z,22.80
2018-02-08T05:47:19.912Z,22.20
2018-02-08T05:48:19.850Z,22.30
2018-02-08T05:49:19.787Z,22.00
2018-02-08T05:50:19.725Z,23.50
2018-02-08T05:51:19.667Z,21.80
2018-02-08T05:52:19.603Z,20.60
2018-02-08T05:53:19.541Z,21.30
2018-02-08T05:54:19.478Z,22.80
2018-02-08T05:55:19.417Z,22.40
2018-02-08T05:56:19.356Z,21.90
2018-02-08T05:57:19.292Z,22.30
2018-02-08T05:58:19.230Z,22.00
2018-02-08T05:59:19.173Z,23.20
2018-02-08T06:00:19.111Z,22.70
2018-02-08T06:01:19.046Z,21.30
2018-02-08T06:02:18.984Z,20.10
2018-02-08T06:03:18.924Z,21.00
2018-02-08T06:04:18.864Z,20.60
2018-02-08T06:05:18.801Z,18.80
2018-02-08T06:06:18.741Z,18.80
2018-02-08T06:07:18.727Z,18.00
2018-02-08T06:08:18.617Z,18.40
2018-02-08T06:09:18.556Z,18.80
2018-02-08T06:10:18.496Z,19.00
2018-02-08T06:11:18.437Z,18.50
2018-02-08T06:12:18.379Z,16.60
2018-02-08T06:13:18.317Z,18.10
2018-02-08T06:14:18.259Z,18.10
2018-02-08T06:15:18.201Z,16.40
2018-02-08T06:16:18.141Z,16.30
2018-02-08T06:17:18.082Z,16.80
2018-02-08T06:18:18.024Z,16.20
2018-02-08T06:19:17.967Z,16.30
2018-02-08T06:20:17.910Z,15.50
2018-02-08T06:21:17.852Z,16.00
2018-02-08T06:22:17.794Z,15.50
2018-02-08T06:23:17.740Z,15.30
2018-02-08T06:24:17.686Z,17.10
2018-02-08T06:25:17.625Z,16.30
2018-02-08T06:26:17.574Z,16.20
2018-02-08T06:27:17.515Z,16.00
2018-02-08T06:28:17.460Z,16.00
2018-02-08T06:29:17.404Z,16.10
2018-02-08T06:30:17.349Z,14.90
2018-02-08T06:31:17.294Z,15.60
2018-02-08T06:32:17.238Z,15.60
2018-02-08T06:33:17.184Z,16.40
2018-02-08T06:34:17.128Z,15.60
2018-02-08T06:35:17.073Z,16.00
2018-02-08T06:36:17.020Z,15.50
2018-02-08T06:37:16.964Z,16.40
2018-02-08T06:38:16.911Z,15.40
2018-02-08T06:39:16.856Z,15.20
2018-02-08T06:40:16.807Z,16.10
2018-02-08T06:41:16.751Z,14.80
2018-02-08T06:42:16.694Z,14.40
2018-02-08T06:43:16.641Z,14.80
2018-02-08T06:44:16.593Z,15.20
2018-02-08T06:45:16.533Z,15.40
2018-02-08T06:46:16.481Z,13.90
2018-02-08T06:47:16.427Z,13.60
2018-02-08T06:48:16.374Z,14.00
2018-02-08T06:49:16.322Z,14.30
2018-02-08T06:50:16.267Z,12.90
2018-02-08T06:51:16.215Z,13.30
2018-02-08T06:52:16.174Z,14.10
2018-02-08T06:53:16.105Z,13.30
2018-02-08T06:54:16.055Z,13.10
2018-02-08T06:55:16.003Z,13.90
2018-02-08T06:56:15.949Z,13.40
2018-02-08T06:57:15.894Z,12.90
2018-02-08T06:58:15.884Z,13.60
2018-02-08T06:59:15.788Z,13.10
2018-02-08T07:00:15.737Z,13.00
2018-02-08T07:01:15.681Z,13.60
2018-02-08T07:02:15.629Z,15.00
2018-02-08T07:03:15.579Z,12.70
2018-02-08T07:04:15.524Z,13.10
2018-02-08T07:05:15.468Z,13.10
2018-02-08T07:06:15.445Z,12.60
2018-02-08T07:07:15.364Z,12.80
2018-02-08T07:08:15.310Z,12.70
2018-02-08T07:09:15.257Z,13.20
2018-02-08T07:10:15.204Z,12.80
2018-02-08T07:11:15.152Z,13.10
2018-02-08T07:12:15.100Z,12.60
2018-02-08T07:13:15.049Z,13.30
2018-02-08T07:14:14.993Z,13.70
2018-02-08T07:15:14.942Z,14.80
2018-02-08T07:16:14.889Z,13.40
2018-02-08T07:17:14.836Z,13.80
2018-02-08T07:18:14.783Z,14.00
2018-02-08T07:19:14.729Z,14.30
2018-02-08T07:20:14.677Z,13.80
2018-02-08T07:21:14.624Z,14.20
2018-02-08T07:22:14.571Z,14.10
2018-02-08T07:23:14.541Z,14.50
2018-02-08T07:24:14.470Z,14.50
2018-02-08T07:25:14.414Z,14.50
2018-02-08T07:26:14.361Z,14.40
2018-02-08T07:27:14.311Z,14.50
2018-02-08T07:28:14.257Z,14.00
2018-02-08T07:29:14.204Z,14.50
2018-02-08T07:30:14.262Z,14.60
2018-02-08T07:31:14.100Z,15.30
2018-02-08T07:32:14.048Z,14.60
2018-02-08T07:33:13.994Z,14.30
2018-02-08T07:34:13.945Z,15.00
2018-02-08T07:35:13.891Z,15.00
2018-02-08T07:36:13.838Z,15.40
2018-02-08T07:37:13.786Z,15.00
2018-02-08T07:38:13.733Z,14.70
2018-02-08T07:39:13.681Z,14.60
2018-02-08T07:40:13.627Z,14.40
2018-02-08T07:41:13.574Z,15.50
2018-02-08T07:42:13.523Z,14.60
2018-02-08T07:43:13.470Z,15.20
2018-02-08T07:44:13.417Z,15.10
2018-02-08T07:45:13.367Z,14.80
2018-02-08T07:46:13.313Z,15.20
2018-02-08T07:47:13.264Z,15.30
2018-02-08T07:48:13.208Z,15.40
2018-02-08T07:49:13.156Z,15.20
2018-02-08T07:50:13.102Z,15.30
2018-02-08T07:51:13.052Z,15.60
2018-02-08T07:52:13.000Z,15.40
2018-02-08T07:53:12.944Z,15.00
2018-02-08T07:54:12.895Z,15.50
2018-02-08T07:55:12.842Z,15.30
2018-02-08T07:56:12.791Z,15.00
2018-02-08T07:57:12.738Z,16.00
2018-02-08T07:58:12.686Z,15.00
2018-02-08T07:59:12.633Z,15.60
2018-02-08T08:00:12.583Z,15.30
2018-02-08T08:01:12.529Z,16.20
2018-02-08T08:02:12.477Z,15.80
2018-02-08T08:03:12.426Z,16.40
2018-02-08T08:04:12.373Z,15.70
2018-02-08T08:05:12.320Z,15.70
2018-02-08T08:06:12.268Z,16.20
2018-02-08T08:07:12.217Z,15.20
2018-02-08T08:08:12.166Z,16.10
2018-02-08T08:09:12.112Z,15.40
2018-02-08T08:10:12.061Z,15.30
2018-02-08T08:11:12.009Z,15.40
2018-02-08T08:12:11.956Z,15.40
2018-02-08T08:13:11.904Z,15.50
2018-02-08T08:14:11.852Z,17.80
2018-02-08T08:15:11.801Z,17.40
2018-02-08T08:16:11.750Z,15.80
2018-02-08T08:17:11.695Z,15.70
2018-02-08T08:18:11.646Z,16.00
2018-02-08T08:19:11.593Z,16.80
2018-02-08T08:20:11.542Z,15.90
2018-02-08T08:21:11.489Z,16.30
2018-02-08T08:22:11.438Z,16.10
2018-02-08T08:23:11.385Z,16.80
2018-02-08T08:24:11.334Z,16.80
2018-02-08T08:25:11.284Z,15.50
2018-02-08T08:26:11.243Z,17.00
2018-02-08T08:27:11.180Z,16.10
2018-02-08T08:28:11.126Z,16.10
2018-02-08T08:29:11.074Z,15.60
2018-02-08T08:30:11.022Z,16.80
2018-02-08T08:31:10.969Z,16.30
2018-02-08T08:32:10.919Z,16.50
2018-02-08T08:33:10.867Z,17.50
2018-02-08T08:34:10.815Z,20.60
2018-02-08T08:35:10.764Z,29.70
2018-02-08T08:36:10.713Z,26.50
2018-02-08T08:37:10.659Z,24.20
2018-02-08T08:38:10.608Z,22.00
2018-02-08T08:39:10.556Z,20.40
2018-02-08T08:40:10.505Z,21.90
2018-02-08T08:41:10.452Z,22.60
2018-02-08T08:42:10.401Z,20.70
2018-02-08T08:43:10.349Z,19.90
2018-02-08T08:44:10.299Z,19.80
2018-02-08T08:45:10.247Z,23.10
2018-02-08T08:46:10.195Z,18.90
2018-02-08T08:47:10.143Z,19.70
2018-02-08T08:48:10.102Z,20.90
2018-02-08T08:49:10.040Z,21.90
2018-02-08T08:50:09.988Z,24.10
2018-02-08T08:51:09.936Z,20.60
2018-02-08T08:52:09.886Z,18.90
2018-02-08T08:53:09.834Z,20.00
2018-02-08T08:54:09.783Z,17.00
2018-02-08T08:55:09.730Z,20.40
2018-02-08T08:56:09.685Z,18.10
2018-02-08T08:57:09.627Z,18.70
2018-02-08T08:58:09.577Z,19.90
2018-02-08T08:59:09.526Z,19.90
2018-02-08T09:00:09.473Z,20.60
2018-02-08T09:01:09.421Z,18.90
2018-02-08T09:02:09.369Z,20.30
2018-02-08T09:03:09.318Z,18.70
2018-02-08T09:04:09.265Z,19.40
2018-02-08T09:05:09.213Z,18.10
2018-02-08T09:06:09.162Z,19.80
2018-02-08T09:07:09.111Z,19.90
2018-02-08T09:08:09.063Z,19.50
2018-02-08T09:09:09.006Z,20.70
2018-02-08T09:10:08.955Z,19.00
2018-02-08T09:11:08.905Z,22.50
2018-02-08T09:12:08.855Z,17.70
2018-02-08T09:13:08.801Z,19.50
2018-02-08T09:14:08.750Z,18.80
2018-02-08T09:15:08.701Z,18.20
2018-02-08T09:16:08.646Z,16.90
2018-02-08T09:17:08.596Z,18.80
2018-02-08T09:18:08.543Z,18.70
2018-02-08T09:19:08.494Z,17.90
2018-02-08T09:20:08.441Z,16.60
2018-02-08T09:21:08.390Z,20.70
2018-02-08T09:22:08.337Z,17.90
2018-02-08T09:23:08.287Z,19.30
2018-02-08T09:24:08.238Z,18.60
2018-02-08T09:25:08.182Z,18.30
2018-02-08T09:26:08.133Z,20.80
2018-02-08T09:27:08.081Z,19.80
2018-02-08T09:28:08.030Z,19.20
2018-02-08T09:29:07.988Z,18.30
2018-02-08T09:30:07.926Z,16.70
2018-02-08T09:31:07.875Z,18.40
2018-02-08T09:32:07.825Z,19.60
2018-02-08T09:33:07.778Z,19.40
2018-02-08T09:34:07.721Z,19.80
2018-02-08T09:35:07.674Z,19.60
2018-02-08T09:36:07.620Z,16.90
2018-02-08T09:37:07.567Z,18.40
2018-02-08T09:38:07.560Z,19.30
2018-02-08T09:39:07.466Z,17.90
2018-02-08T09:40:07.413Z,19.60
2018-02-08T09:41:07.359Z,19.90
2018-02-08T09:42:07.311Z,19.80
2018-02-08T09:43:07.261Z,19.40
2018-02-08T09:44:07.208Z,18.20
2018-02-08T09:45:07.157Z,17.80
2018-02-08T09:46:07.104Z,18.20
2018-02-08T09:47:07.055Z,21.30
2018-02-08T09:48:07.003Z,20.80
2018-02-08T09:49:06.953Z,18.50
2018-02-08T09:50:06.899Z,18.50
2018-02-08T09:51:06.848Z,17.80
2018-02-08T09:52:06.798Z,20.10
2018-02-08T09:53:06.747Z,18.80
2018-02-08T09:54:06.695Z,19.20
2018-02-08T09:55:06.644Z,22.10
2018-02-08T09:56:06.594Z,20.10
2018-02-08T09:57:06.550Z,23.40
2018-02-08T09:58:06.491Z,22.10
2018-02-08T09:59:06.438Z,20.60
2018-02-08T10:00:06.386Z,18.50
2018-02-08T10:01:06.335Z,19.10
2018-02-08T10:02:06.287Z,20.30
2018-02-08T10:03:06.233Z,20.20
2018-02-08T10:04:06.185Z,20.20
2018-02-08T10:05:06.129Z,19.90
2018-02-08T10:06:06.080Z,21.60
2018-02-08T10:07:06.028Z,20.50
2018-02-08T10:08:05.977Z,21.70
2018-02-08T10:09:05.925Z,19.00
2018-02-08T10:10:05.876Z,19.20
2018-02-08T10:11:05.824Z,21.20
2018-02-08T10:12:05.772Z,21.20
2018-02-08T10:13:05.720Z,22.50
2018-02-08T10:14:05.674Z,20.40
2018-02-08T10:15:05.618Z,20.80
2018-02-08T10:16:05.567Z,21.40
2018-02-08T10:17:05.514Z,19.80
2018-02-08T10:18:05.465Z,18.60
2018-02-08T10:19:05.416Z,20.70
2018-02-08T10:20:05.363Z,21.50
2018-02-08T10:21:05.310Z,22.10
2018-02-08T10:22:05.265Z,19.90
2018-02-08T10:23:05.209Z,21.90
2018-02-08T10:24:05.156Z,22.20
2018-02-08T10:25:05.105Z,19.10
2018-02-08T10:26:05.056Z,22.30
2018-02-08T10:27:05.004Z,23.10
2018-02-08T10:28:04.952Z,24.10
2018-02-08T10:29:04.901Z,22.50
2018-02-08T10:30:04.848Z,20.40
2018-02-08T10:31:04.799Z,21.00
2018-02-08T10:32:04.747Z,21.00
2018-02-08T10:33:04.697Z,22.60
2018-02-08T10:34:04.645Z,25.70
2018-02-08T10:35:04.593Z,22.80
2018-02-08T10:36:04.574Z,23.30
2018-02-08T10:37:04.493Z,23.70
2018-02-08T10:38:04.438Z,23.30
2018-02-08T10:39:04.392Z,25.60
2018-02-08T10:40:04.338Z,24.50
2018-02-08T10:41:04.287Z,22.60
2018-02-08T10:42:04.234Z,21.20
2018-02-08T10:43:04.184Z,23.10
2018-02-08T10:44:04.131Z,23.20
2018-02-08T10:45:04.079Z,21.50
2018-02-08T10:46:04.030Z,20.60
2018-02-08T10:47:03.985Z,22.40
2018-02-08T10:48:03.959Z,21.40
2018-02-08T10:49:03.876Z,25.40
2018-02-08T10:50:03.837Z,21.20
2018-02-08T10:51:03.774Z,26.10
2018-02-08T10:52:03.721Z,21.50
2018-02-08T10:53:03.670Z,23.00
2018-02-08T10:54:03.619Z,25.50
2018-02-08T10:55:03.568Z,21.90
2018-02-08T10:56:03.551Z,21.80
2018-02-08T10:57:03.466Z,20.30
2018-02-08T10:58:03.415Z,23.40
2018-02-08T10:59:03.363Z,25.10
2018-02-08T11:00:03.314Z,22.70
2018-02-08T11:01:03.259Z,21.10
2018-02-08T11:02:03.212Z,24.60
2018-02-08T11:03:03.159Z,22.30
2018-02-08T11:04:03.107Z,21.00
2018-02-08T11:05:03.057Z,20.60
2018-02-08T11:06:03.003Z,22.40
2018-02-08T11:07:02.954Z,22.10
2018-02-08T11:08:02.903Z,22.30
2018-02-08T11:09:02.850Z,21.30
2018-02-08T11:10:02.801Z,23.10
2018-02-08T11:11:02.748Z,21.60
2018-02-08T11:12:02.699Z,21.40
2018-02-08T11:13:02.647Z,23.50
2018-02-08T11:14:02.594Z,25.30
2018-02-08T11:15:02.544Z,21.50
2018-02-08T11:16:02.494Z,19.10
2018-02-08T11:17:02.441Z,23.20
2018-02-08T11:18:02.392Z,24.10
2018-02-08T11:19:02.338Z,22.50
2018-02-08T11:20:02.291Z,23.40
2018-02-08T11:21:02.238Z,22.60
2018-02-08T11:22:02.188Z,23.00
2018-02-08T11:23:02.135Z,20.40
2018-02-08T11:24:02.084Z,22.80
2018-02-08T11:25:02.032Z,22.90
2018-02-08T11:26:01.981Z,23.00
2018-02-08T11:27:01.937Z,26.90
2018-02-08T11:28:01.879Z,23.20
2018-02-08T11:29:01.828Z,25.40
2018-02-08T11:30:01.777Z,25.20
2018-02-08T11:31:01.724Z,21.20
2018-02-08T11:32:01.674Z,21.80
2018-02-08T11:33:01.621Z,22.60
2018-02-08T11:34:01.570Z,20.80
2018-02-08T11:35:01.520Z,22.20
2018-02-08T11:36:01.469Z,22.70
2018-02-08T11:37:01.416Z,27.60
2018-02-08T11:38:01.366Z,23.40
2018-02-08T11:39:01.315Z,22.20
2018-02-08T11:40:01.263Z,23.80
2018-02-08T11:41:01.211Z,21.60
2018-02-08T11:42:01.162Z,26.80
2018-02-08T11:43:01.109Z,40.10
2018-02-08T11:44:01.057Z,43.90
2018-02-08T11:45:01.011Z,49.10
2018-02-08T11:46:00.954Z,39.40
2018-02-08T11:47:00.902Z,37.50
2018-02-08T11:48:00.858Z,37.80
2018-02-08T11:49:00.801Z,32.60
2018-02-08T11:50:00.751Z,35.40
2018-02-08T11:51:00.696Z,33.50
2018-02-08T11:52:00.648Z,32.50
2018-02-08T11:53:00.596Z,27.90
2018-02-08T11:54:00.545Z,29.40
2018-02-08T11:55:00.495Z,29.40
2018-02-08T11:56:00.443Z,31.90
2018-02-08T11:57:00.391Z,28.50
2018-02-08T11:58:00.340Z,30.20
2018-02-08T11:59:00.288Z,30.60
2018-02-08T12:00:00.238Z,27.60
2018-02-08T12:01:00.186Z,29.30
2018-02-08T12:02:00.136Z,32.40
2018-02-08T12:03:00.112Z,28.70
2018-02-08T12:04:00.034Z,30.80
2018-02-08T12:04:59.980Z,28.30
2018-02-08T12:05:59.930Z,27.30
2018-02-08T12:06:59.883Z,25.40
2018-02-08T12:07:59.832Z,25.80
2018-02-08T12:08:59.780Z,25.90
2018-02-08T12:09:59.724Z,27.40
2018-02-08T12:10:59.674Z,28.30
2018-02-08T12:11:59.621Z,29.60
2018-02-08T12:12:59.573Z,26.20
2018-02-08T12:13:59.518Z,25.10
2018-02-08T12:14:59.467Z,24.00
2018-02-08T12:15:59.419Z,25.60
2018-02-08T12:16:59.365Z,26.70
2018-02-08T12:17:59.324Z,25.80
2018-02-08T12:18:59.268Z,26.60
2018-02-08T12:19:59.211Z,25.00
2018-02-08T12:20:59.159Z,27.20
2018-02-08T12:21:59.154Z,25.00
2018-02-08T12:22:59.056Z,25.70
2018-02-08T12:23:59.005Z,23.20
2018-02-08T12:24:58.953Z,25.00
2018-02-08T12:25:58.919Z,24.30
2018-02-08T12:26:58.849Z,27.60
2018-02-08T12:27:58.800Z,25.90
2018-02-08T12:28:58.747Z,29.10
2018-02-08T12:29:58.695Z,26.40
2018-02-08T12:30:58.646Z,27.90
2018-02-08T12:31:58.596Z,28.00
2018-02-08T12:32:58.540Z,26.60
2018-02-08T12:33:58.488Z,27.50
2018-02-08T12:34:58.438Z,27.20
2018-02-08T12:35:58.386Z,30.80
2018-02-08T12:36:58.333Z,26.10
2018-02-08T12:37:58.281Z,24.00
2018-02-08T12:38:58.229Z,25.70
2018-02-08T12:39:58.183Z,27.70
2018-02-08T12:40:58.124Z,27.20
2018-02-08T12:41:58.080Z,24.90
2018-02-08T12:42:58.022Z,28.50
2018-02-08T12:43:57.970Z,27.50
2018-02-08T12:44:57.917Z,27.70
2018-02-08T12:45:57.864Z,27.20
2018-02-08T12:46:57.813Z,26.70
2018-02-08T12:47:57.759Z,26.10
2018-02-08T12:48:57.708Z,27.90
2018-02-08T12:49:57.656Z,27.40
2018-02-08T12:50:57.603Z,28.30
2018-02-08T12:51:57.556Z,26.50